sensor_id;sensor_type;location;lat;lon;timestamp;pressure;altitude;pressure_sealevel;temperature;humidity
80124;BME280;69433;48.642;9.142;2023-07-29T00:01:30;96607.94;;;24.89;46.47
80124;BME280;69433;48.642;9.142;2023-07-29T00:03:56;96603.75;;;24.88;46.83
80124;BME280;69433;48.642;9.142;2023-07-29T00:06:21;96608.25;;;24.91;46.79
80124;BME280;69433;48.642;9.142;2023-07-29T00:08:46;96601.81;;;24.89;46.63
80124;BME280;69433;48.642;9.142;2023-07-29T00:11:19;96606.84;;;24.87;46.45
80124;BME280;69433;48.642;9.142;2023-07-29T00:13:44;96604.16;;;24.87;47.04
80124;BME280;69433;48.642;9.142;2023-07-29T00:16:09;96610.28;;;24.87;46.66
80124;BME280;69433;48.642;9.142;2023-07-29T00:18:35;96607.94;;;24.89;46.85
80124;BME280;69433;48.642;9.142;2023-07-29T00:21:00;96599.53;;;24.87;46.72
80124;BME280;69433;48.642;9.142;2023-07-29T00:23:25;96594.16;;;24.87;46.81
80124;BME280;69433;48.642;9.142;2023-07-29T00:25:51;96591.91;;;24.86;47.24
80124;BME280;69433;48.642;9.142;2023-07-29T00:28:16;96596.44;;;24.89;46.84
80124;BME280;69433;48.642;9.142;2023-07-29T00:30:43;96600.28;;;24.88;46.85
80124;BME280;69433;48.642;9.142;2023-07-29T00:33:11;96594.16;;;24.87;46.51
80124;BME280;69433;48.642;9.142;2023-07-29T00:35:36;96592.22;;;24.88;46.81
80124;BME280;69433;48.642;9.142;2023-07-29T00:38:02;96587.59;;;24.88;46.85
80124;BME280;69433;48.642;9.142;2023-07-29T00:40:28;96596.84;;;24.87;47.00
80124;BME280;69433;48.642;9.142;2023-07-29T00:42:54;96597.19;;;24.89;46.50
80124;BME280;69433;48.642;9.142;2023-07-29T00:45:20;96597.19;;;24.89;46.51
80124;BME280;69433;48.642;9.142;2023-07-29T00:47:46;96603.41;;;24.86;46.95
80124;BME280;69433;48.642;9.142;2023-07-29T00:50:13;96598.03;;;24.86;46.73
80124;BME280;69433;48.642;9.142;2023-07-29T00:52:39;96594.16;;;24.87;46.55
80124;BME280;69433;48.642;9.142;2023-07-29T00:55:06;96596.84;;;24.87;46.62
80124;BME280;69433;48.642;9.142;2023-07-29T00:57:32;96595.66;;;24.88;46.57
80124;BME280;69433;48.642;9.142;2023-07-29T01:00:00;96595.66;;;24.88;46.66
80124;BME280;69433;48.642;9.142;2023-07-29T01:02:26;96590.28;;;24.88;46.38
80124;BME280;69433;48.642;9.142;2023-07-29T01:05:01;96594.91;;;24.88;46.58
80124;BME280;69433;48.642;9.142;2023-07-29T01:07:39;96584.59;;;24.86;46.72
80124;BME280;69433;48.642;9.142;2023-07-29T01:10:19;96584.59;;;24.86;46.58
80124;BME280;69433;48.642;9.142;2023-07-29T01:12:54;96583.41;;;24.87;46.77
80124;BME280;69433;48.642;9.142;2023-07-29T01:15:26;96577.28;;;24.87;46.66
80124;BME280;69433;48.642;9.142;2023-07-29T01:17:56;96576.09;;;24.88;46.83
80124;BME280;69433;48.642;9.142;2023-07-29T01:20:25;96578.78;;;24.88;46.63
80124;BME280;69433;48.642;9.142;2023-07-29T01:22:51;96575.34;;;24.87;46.22
80124;BME280;69433;48.642;9.142;2023-07-29T01:25:17;96574.16;;;24.88;46.23
80124;BME280;69433;48.642;9.142;2023-07-29T01:27:45;96574.59;;;24.87;46.22
80124;BME280;69433;48.642;9.142;2023-07-29T01:30:11;96578.03;;;24.87;46.49
80124;BME280;69433;48.642;9.142;2023-07-29T01:35:50;96592.66;;;24.86;46.20
80124;BME280;69433;48.642;9.142;2023-07-29T01:38:30;96587.28;;;24.86;46.35
80124;BME280;69433;48.642;9.142;2023-07-29T01:41:06;96581.22;;;24.82;46.67
80124;BME280;69433;48.642;9.142;2023-07-29T01:43:32;96577.38;;;24.83;46.23
80124;BME280;69433;48.642;9.142;2023-07-29T01:45:58;96571.22;;;24.83;46.56
80124;BME280;69433;48.642;9.142;2023-07-29T01:48:24;96570.81;;;24.84;46.42
80124;BME280;69433;48.642;9.142;2023-07-29T01:50:50;96570.47;;;24.82;46.19
80124;BME280;69433;48.642;9.142;2023-07-29T01:53:15;96572.75;;;24.84;46.53
80124;BME280;69433;48.642;9.142;2023-07-29T01:55:41;96573.50;;;24.84;46.60
80124;BME280;69433;48.642;9.142;2023-07-29T01:58:07;96567.38;;;24.84;46.48
80124;BME280;69433;48.642;9.142;2023-07-29T02:00:38;96559.63;;;24.86;46.53
80124;BME280;69433;48.642;9.142;2023-07-29T02:03:04;96556.59;;;24.84;46.47
80124;BME280;69433;48.642;9.142;2023-07-29T02:05:29;96550.47;;;24.83;46.42
80124;BME280;69433;48.642;9.142;2023-07-29T02:07:54;96556.59;;;24.84;46.25
80124;BME280;69433;48.642;9.142;2023-07-29T02:10:20;96551.22;;;24.84;46.04
80124;BME280;69433;48.642;9.142;2023-07-29T02:12:45;96544.25;;;24.86;46.10
80124;BME280;69433;48.642;9.142;2023-07-29T02:15:10;96538.53;;;24.84;46.37
80124;BME280;69433;48.642;9.142;2023-07-29T02:17:36;96536.28;;;24.83;46.16
80124;BME280;69433;48.642;9.142;2023-07-29T02:20:02;96528.97;;;24.83;46.23
80124;BME280;69433;48.642;9.142;2023-07-29T02:22:28;96531.66;;;24.83;46.25
80124;BME280;69433;48.642;9.142;2023-07-29T02:24:54;96531.66;;;24.83;46.39
80124;BME280;69433;48.642;9.142;2023-07-29T02:27:21;96533.16;;;24.84;46.06
80124;BME280;69433;48.642;9.142;2023-07-29T02:29:46;96530.47;;;24.84;46.43
80124;BME280;69433;48.642;9.142;2023-07-29T02:32:12;96538.97;;;24.83;46.37
80124;BME280;69433;48.642;9.142;2023-07-29T02:34:37;96540.91;;;24.82;46.24
80124;BME280;69433;48.642;9.142;2023-07-29T02:37:03;96532.41;;;24.84;46.24
80124;BME280;69433;48.642;9.142;2023-07-29T02:39:28;96528.63;;;24.81;46.42
80124;BME280;69433;48.642;9.142;2023-07-29T02:41:53;96536.69;;;24.81;46.00
80124;BME280;69433;48.642;9.142;2023-07-29T02:44:20;96542.84;;;24.82;46.35
80124;BME280;69433;48.642;9.142;2023-07-29T02:46:45;96539.84;;;24.80;46.39
80124;BME280;69433;48.642;9.142;2023-07-29T02:49:11;96532.19;;;24.78;46.21
80124;BME280;69433;48.642;9.142;2023-07-29T02:51:38;96525.66;;;24.79;46.21
80124;BME280;69433;48.642;9.142;2023-07-29T02:54:03;96529.81;;;24.80;45.94
80124;BME280;69433;48.642;9.142;2023-07-29T02:56:28;96531.31;;;24.81;45.86
80124;BME280;69433;48.642;9.142;2023-07-29T02:58:55;96527.88;;;24.81;45.97
80124;BME280;69433;48.642;9.142;2023-07-29T03:01:23;96532.84;;;24.82;45.96
80124;BME280;69433;48.642;9.142;2023-07-29T03:03:50;96526.81;;;24.78;46.23
80124;BME280;69433;48.642;9.142;2023-07-29T03:06:16;96529.09;;;24.80;46.30
80124;BME280;69433;48.642;9.142;2023-07-29T03:08:42;96520.28;;;24.79;45.98
80124;BME280;69433;48.642;9.142;2023-07-29T03:11:12;96521.03;;;24.80;46.23
80124;BME280;69433;48.642;9.142;2023-07-29T03:13:44;96519.06;;;24.80;46.22
80124;BME280;69433;48.642;9.142;2023-07-29T03:16:10;96521.03;;;24.80;45.97
80124;BME280;69433;48.642;9.142;2023-07-29T03:18:36;96511.88;;;24.77;46.27
80124;BME280;69433;48.642;9.142;2023-07-29T03:21:03;96507.34;;;24.74;46.18
80124;BME280;69433;48.642;9.142;2023-07-29T03:23:30;96502.38;;;24.72;46.06
80124;BME280;69433;48.642;9.142;2023-07-29T03:25:56;96494.66;;;24.74;46.18
80124;BME280;69433;48.642;9.142;2023-07-29T03:28:28;96488.53;;;24.74;46.25
80124;BME280;69433;48.642;9.142;2023-07-29T03:30:54;96490.03;;;24.75;45.96
80124;BME280;69433;48.642;9.142;2023-07-29T03:33:20;96503.16;;;24.73;46.37
80124;BME280;69433;48.642;9.142;2023-07-29T03:35:45;96501.22;;;24.73;46.04
80124;BME280;69433;48.642;9.142;2023-07-29T03:38:11;96500.03;;;24.74;45.94
80124;BME280;69433;48.642;9.142;2023-07-29T03:40:40;96499.28;;;24.74;46.38
80124;BME280;69433;48.642;9.142;2023-07-29T03:43:06;96505.41;;;24.74;46.12
80124;BME280;69433;48.642;9.142;2023-07-29T03:45:31;96491.97;;;24.74;45.90
80124;BME280;69433;48.642;9.142;2023-07-29T03:47:57;96495.41;;;24.75;46.02
80124;BME280;69433;48.642;9.142;2023-07-29T03:50:25;96497.00;;;24.72;45.99
80124;BME280;69433;48.642;9.142;2023-07-29T03:52:50;96508.09;;;24.74;46.28
80124;BME280;69433;48.642;9.142;2023-07-29T03:55:16;96500.47;;;24.73;46.38
80124;BME280;69433;48.642;9.142;2023-07-29T03:57:41;96509.28;;;24.73;46.00
80124;BME280;69433;48.642;9.142;2023-07-29T04:00:07;96501.22;;;24.73;45.89
80124;BME280;69433;48.642;9.142;2023-07-29T04:02:34;96501.53;;;24.75;46.13
80124;BME280;69433;48.642;9.142;2023-07-29T04:05:03;96495.41;;;24.75;45.79
80124;BME280;69433;48.642;9.142;2023-07-29T04:07:33;96496.91;;;24.76;46.03
80124;BME280;69433;48.642;9.142;2023-07-29T04:09:58;96487.34;;;24.75;45.94
80124;BME280;69433;48.642;9.142;2023-07-29T04:12:24;96487.69;;;24.77;45.71
80124;BME280;69433;48.642;9.142;2023-07-29T04:14:49;96485.00;;;24.77;45.96
80124;BME280;69433;48.642;9.142;2023-07-29T04:17:24;96472.72;;;24.76;45.94
80124;BME280;69433;48.642;9.142;2023-07-29T04:19:49;96490.03;;;24.75;45.70
80124;BME280;69433;48.642;9.142;2023-07-29T04:22:15;96484.66;;;24.75;45.68
80124;BME280;69433;48.642;9.142;2023-07-29T04:24:41;96485.84;;;24.74;46.03
80124;BME280;69433;48.642;9.142;2023-07-29T04:27:06;96492.72;;;24.75;46.19
80124;BME280;69433;48.642;9.142;2023-07-29T04:29:31;96494.22;;;24.76;45.85
80124;BME280;69433;48.642;9.142;2023-07-29T04:31:57;96514.56;;;24.77;45.87
80124;BME280;69433;48.642;9.142;2023-07-29T04:34:22;96521.13;;;24.76;45.72
80124;BME280;69433;48.642;9.142;2023-07-29T04:36:48;96527.66;;;24.75;45.98
80124;BME280;69433;48.642;9.142;2023-07-29T04:39:13;96510.38;;;24.76;45.74
80124;BME280;69433;48.642;9.142;2023-07-29T04:41:38;96509.19;;;24.77;45.54
80124;BME280;69433;48.642;9.142;2023-07-29T04:44:04;96495.00;;;24.76;45.94
80124;BME280;69433;48.642;9.142;2023-07-29T04:46:29;96498.84;;;24.75;46.01
80124;BME280;69433;48.642;9.142;2023-07-29T04:48:55;96509.19;;;24.77;45.94
80124;BME280;69433;48.642;9.142;2023-07-29T04:51:21;96510.78;;;24.74;45.82
80124;BME280;69433;48.642;9.142;2023-07-29T04:53:46;96512.28;;;24.75;45.96
80124;BME280;69433;48.642;9.142;2023-07-29T04:56:11;96513.81;;;24.76;45.61
80124;BME280;69433;48.642;9.142;2023-07-29T04:58:36;96527.66;;;24.75;45.89
80124;BME280;69433;48.642;9.142;2023-07-29T05:01:03;96543.03;;;24.74;45.89
80124;BME280;69433;48.642;9.142;2023-07-29T05:03:28;96546.91;;;24.73;45.76
80124;BME280;69433;48.642;9.142;2023-07-29T05:05:53;96521.13;;;24.76;45.92
80124;BME280;69433;48.642;9.142;2023-07-29T05:08:21;96518.84;;;24.74;46.03
80124;BME280;69433;48.642;9.142;2023-07-29T05:10:49;96539.59;;;24.74;45.68
80124;BME280;69433;48.642;9.142;2023-07-29T05:13:15;96546.50;;;24.75;46.01
80124;BME280;69433;48.642;9.142;2023-07-29T05:15:41;96538.44;;;24.75;46.01
80124;BME280;69433;48.642;9.142;2023-07-29T05:18:06;96526.16;;;24.74;46.05
80124;BME280;69433;48.642;9.142;2023-07-29T05:20:31;96551.53;;;24.73;45.64
80124;BME280;69433;48.642;9.142;2023-07-29T05:22:57;96540.78;;;24.73;45.88
80124;BME280;69433;48.642;9.142;2023-07-29T05:25:22;96541.66;;;24.70;46.25
80124;BME280;69433;48.642;9.142;2023-07-29T05:27:47;96537.75;;;24.71;45.90
80124;BME280;69433;48.642;9.142;2023-07-29T05:30:13;96527.00;;;24.71;45.85
80124;BME280;69433;48.642;9.142;2023-07-29T05:32:38;96520.47;;;24.72;46.27
80124;BME280;69433;48.642;9.142;2023-07-29T05:35:04;96510.88;;;24.71;46.07
80124;BME280;69433;48.642;9.142;2023-07-29T05:37:29;96512.09;;;24.70;46.15
80124;BME280;69433;48.642;9.142;2023-07-29T05:39:55;96516.25;;;24.71;46.20
80124;BME280;69433;48.642;9.142;2023-07-29T05:42:20;96514.22;;;24.75;45.94
80124;BME280;69433;48.642;9.142;2023-07-29T05:44:45;96526.91;;;24.74;46.04
80124;BME280;69433;48.642;9.142;2023-07-29T05:47:11;96528.53;;;24.72;45.89
80124;BME280;69433;48.642;9.142;2023-07-29T05:49:36;96527.34;;;24.73;46.08
80124;BME280;69433;48.642;9.142;2023-07-29T05:52:01;96523.91;;;24.72;46.16
80124;BME280;69433;48.642;9.142;2023-07-29T05:54:26;96504.66;;;24.74;46.10
80124;BME280;69433;48.642;9.142;2023-07-29T05:56:55;96507.69;;;24.76;46.01
80124;BME280;69433;48.642;9.142;2023-07-29T05:59:20;96516.16;;;24.74;45.82
80124;BME280;69433;48.642;9.142;2023-07-29T06:01:46;96504.66;;;24.74;45.76
80124;BME280;69433;48.642;9.142;2023-07-29T06:04:12;96504.97;;;24.76;45.78
80124;BME280;69433;48.642;9.142;2023-07-29T06:06:37;96503.38;;;24.78;45.84
80124;BME280;69433;48.642;9.142;2023-07-29T06:09:02;96496.06;;;24.79;46.02
80124;BME280;69433;48.642;9.142;2023-07-29T06:11:27;96500.56;;;24.82;46.02
80124;BME280;69433;48.642;9.142;2023-07-29T06:13:53;96500.56;;;24.82;45.95
80124;BME280;69433;48.642;9.142;2023-07-29T06:16:18;96500.91;;;24.84;45.97
80124;BME280;69433;48.642;9.142;2023-07-29T06:18:43;96511.22;;;24.86;45.80
80124;BME280;69433;48.642;9.142;2023-07-29T06:21:09;96503.59;;;24.84;45.67
80124;BME280;69433;48.642;9.142;2023-07-29T06:23:37;96508.97;;;24.84;45.61
80124;BME280;69433;48.642;9.142;2023-07-29T06:26:03;96520.56;;;24.81;45.85
80124;BME280;69433;48.642;9.142;2023-07-29T06:28:28;96519.72;;;24.84;45.73
80124;BME280;69433;48.642;9.142;2023-07-29T06:30:53;96523.59;;;24.83;46.16
80124;BME280;69433;48.642;9.142;2023-07-29T06:33:19;96517.59;;;24.79;46.00
80124;BME280;69433;48.642;9.142;2023-07-29T06:35:44;96521.75;;;24.80;46.19
80124;BME280;69433;48.642;9.142;2023-07-29T06:38:09;96523.16;;;24.85;46.38
80124;BME280;69433;48.642;9.142;2023-07-29T06:40:34;96532.84;;;24.82;46.69
80124;BME280;69433;48.642;9.142;2023-07-29T06:43:00;96531.78;;;24.80;46.68
80124;BME280;69433;48.642;9.142;2023-07-29T06:45:26;96539.94;;;24.76;46.93
80124;BME280;69433;48.642;9.142;2023-07-29T06:47:51;96539.94;;;24.76;47.02
80124;BME280;69433;48.642;9.142;2023-07-29T06:50:17;96556.81;;;24.76;47.12
80124;BME280;69433;48.642;9.142;2023-07-29T06:52:42;96559.19;;;24.74;47.27
80124;BME280;69433;48.642;9.142;2023-07-29T06:55:07;96549.50;;;24.77;47.50
80124;BME280;69433;48.642;9.142;2023-07-29T06:57:33;96569.09;;;24.77;47.22
80124;BME280;69433;48.642;9.142;2023-07-29T06:59:58;96577.91;;;24.78;47.32
80124;BME280;69433;48.642;9.142;2023-07-29T07:02:23;96602.09;;;24.78;47.39
80124;BME280;69433;48.642;9.142;2023-07-29T07:04:49;96598.22;;;24.79;47.53
80124;BME280;69433;48.642;9.142;2023-07-29T07:07:15;96596.72;;;24.78;47.27
80124;BME280;69433;48.642;9.142;2023-07-29T07:09:40;96594.78;;;24.78;47.48
80124;BME280;69433;48.642;9.142;2023-07-29T07:12:06;96578.97;;;24.81;47.45
80124;BME280;69433;48.642;9.142;2023-07-29T07:14:31;96569.41;;;24.80;47.10
80124;BME280;69433;48.642;9.142;2023-07-29T07:16:57;96568.13;;;24.84;47.30
80124;BME280;69433;48.642;9.142;2023-07-29T07:19:22;96565.75;;;24.86;47.29
80124;BME280;69433;48.642;9.142;2023-07-29T07:21:48;96567.28;;;24.87;46.99
80124;BME280;69433;48.642;9.142;2023-07-29T07:24:13;96561.03;;;24.90;47.13
80124;BME280;69433;48.642;9.142;2023-07-29T07:26:38;96563.31;;;24.92;47.41
80124;BME280;69433;48.642;9.142;2023-07-29T07:29:04;96563.31;;;24.92;47.10
80124;BME280;69433;48.642;9.142;2023-07-29T07:31:33;96547.94;;;24.92;47.32
80124;BME280;69433;48.642;9.142;2023-07-29T07:33:59;96549.34;;;24.97;46.98
80124;BME280;69433;48.642;9.142;2023-07-29T07:36:25;96550.09;;;24.97;47.13
80124;BME280;69433;48.642;9.142;2023-07-29T07:38:51;96559.69;;;24.98;46.93
80124;BME280;69433;48.642;9.142;2023-07-29T07:41:16;96564.19;;;25.01;47.13
80124;BME280;69433;48.642;9.142;2023-07-29T07:43:41;96560.31;;;25.02;47.08
80124;BME280;69433;48.642;9.142;2023-07-29T07:46:07;96559.13;;;25.03;47.01
80124;BME280;69433;48.642;9.142;2023-07-29T07:48:32;96559.78;;;25.07;47.04
80124;BME280;69433;48.642;9.142;2023-07-29T07:50:58;96555.94;;;25.08;46.96
80124;BME280;69433;48.642;9.142;2023-07-29T07:53:24;96556.66;;;25.09;47.19
80124;BME280;69433;48.642;9.142;2023-07-29T07:55:50;96552.34;;;25.11;47.19
80124;BME280;69433;48.642;9.142;2023-07-29T07:58:17;96564.19;;;25.14;47.34
80124;BME280;69433;48.642;9.142;2023-07-29T08:00:42;96558.41;;;25.16;47.21
80124;BME280;69433;48.642;9.142;2023-07-29T08:03:08;96556.03;;;25.18;47.46
80124;BME280;69433;48.642;9.142;2023-07-29T08:05:33;96563.34;;;25.17;47.21
80124;BME280;69433;48.642;9.142;2023-07-29T08:07:58;96565.59;;;25.19;47.48
80124;BME280;69433;48.642;9.142;2023-07-29T08:10:24;96569.78;;;25.20;47.41
80124;BME280;69433;48.642;9.142;2023-07-29T08:12:49;96560.53;;;25.21;47.63
80124;BME280;69433;48.642;9.142;2023-07-29T08:15:14;96565.91;;;25.21;47.85
80124;BME280;69433;48.642;9.142;2023-07-29T08:17:40;96571.28;;;25.21;48.13
80124;BME280;69433;48.642;9.142;2023-07-29T08:20:05;96571.63;;;25.23;48.21
80124;BME280;69433;48.642;9.142;2023-07-29T08:22:31;96577.00;;;25.23;48.39
80124;BME280;69433;48.642;9.142;2023-07-29T08:24:57;96577.00;;;25.23;48.59
80124;BME280;69433;48.642;9.142;2023-07-29T08:27:22;96574.75;;;25.21;48.72
80124;BME280;69433;48.642;9.142;2023-07-29T08:29:47;96579.69;;;25.23;48.83
80124;BME280;69433;48.642;9.142;2023-07-29T08:32:12;96583.16;;;25.23;48.77
80124;BME280;69433;48.642;9.142;2023-07-29T08:34:38;96588.09;;;25.25;48.87
80124;BME280;69433;48.642;9.142;2023-07-29T08:37:03;96583.03;;;25.27;48.79
80124;BME280;69433;48.642;9.142;2023-07-29T08:39:28;96586.78;;;25.29;48.70
80124;BME280;69433;48.642;9.142;2023-07-29T08:41:57;96589.06;;;25.31;48.90
80124;BME280;69433;48.642;9.142;2023-07-29T08:44:26;96581.75;;;25.31;49.31
80124;BME280;69433;48.642;9.142;2023-07-29T08:46:55;96587.03;;;25.35;49.55
80124;BME280;69433;48.642;9.142;2023-07-29T08:49:22;96595.72;;;25.39;49.30
80124;BME280;69433;48.642;9.142;2023-07-29T08:51:48;96597.56;;;25.42;49.30
80124;BME280;69433;48.642;9.142;2023-07-29T08:54:15;96593.59;;;25.46;49.27
80124;BME280;69433;48.642;9.142;2023-07-29T08:56:41;96586.16;;;25.50;49.69
80124;BME280;69433;48.642;9.142;2023-07-29T08:59:08;96582.16;;;25.55;49.65
80124;BME280;69433;48.642;9.142;2023-07-29T09:01:33;96584.34;;;25.60;50.02
80124;BME280;69433;48.642;9.142;2023-07-29T09:04:05;96578.09;;;25.63;49.91
80124;BME280;69433;48.642;9.142;2023-07-29T09:06:31;96588.00;;;25.66;50.11
80124;BME280;69433;48.642;9.142;2023-07-29T09:08:58;96582.91;;;25.68;50.06
80124;BME280;69433;48.642;9.142;2023-07-29T09:11:24;96572.81;;;25.72;50.12
80124;BME280;69433;48.642;9.142;2023-07-29T09:13:51;96566.09;;;25.77;50.23
80124;BME280;69433;48.642;9.142;2023-07-29T09:16:18;96568.69;;;25.80;49.83
80124;BME280;69433;48.642;9.142;2023-07-29T09:18:47;96576.66;;;25.84;49.93
80124;BME280;69433;48.642;9.142;2023-07-29T09:21:15;96566.41;;;25.92;50.04
80124;BME280;69433;48.642;9.142;2023-07-29T09:23:44;96556.38;;;25.92;49.97
80124;BME280;69433;48.642;9.142;2023-07-29T09:26:09;96556.38;;;25.92;50.07
80124;BME280;69433;48.642;9.142;2023-07-29T09:28:37;96551.63;;;25.96;50.08
80124;BME280;69433;48.642;9.142;2023-07-29T09:31:06;96550.00;;;25.99;49.92
80124;BME280;69433;48.642;9.142;2023-07-29T09:33:35;96545.25;;;26.03;50.13
80124;BME280;69433;48.642;9.142;2023-07-29T09:36:08;96540.16;;;26.05;50.09
80124;BME280;69433;48.642;9.142;2023-07-29T09:38:34;96534.22;;;26.10;49.69
80124;BME280;69433;48.642;9.142;2023-07-29T09:41:01;96532.72;;;26.09;49.91
80124;BME280;69433;48.642;9.142;2023-07-29T09:43:31;96540.81;;;26.09;50.03
80124;BME280;69433;48.642;9.142;2023-07-29T09:46:05;96556.53;;;26.10;50.02
80124;BME280;69433;48.642;9.142;2023-07-29T09:48:38;96561.81;;;26.14;49.85
80124;BME280;69433;48.642;9.142;2023-07-29T09:51:14;96553.41;;;26.12;50.19
80124;BME280;69433;48.642;9.142;2023-07-29T09:53:43;96537.25;;;26.12;50.01
80124;BME280;69433;48.642;9.142;2023-07-29T09:56:10;96554.91;;;26.13;49.93
80124;BME280;69433;48.642;9.142;2023-07-29T09:58:35;96544.75;;;26.17;49.81
80124;BME280;69433;48.642;9.142;2023-07-29T10:01:03;96536.56;;;26.20;49.66
80124;BME280;69433;48.642;9.142;2023-07-29T10:03:29;96540.75;;;26.21;49.67
80124;BME280;69433;48.642;9.142;2023-07-29T10:06:00;96546.00;;;26.25;49.75
80124;BME280;69433;48.642;9.142;2023-07-29T10:08:26;96539.78;;;26.28;49.46
80124;BME280;69433;48.642;9.142;2023-07-29T10:10:52;96542.13;;;26.26;49.32
80124;BME280;69433;48.642;9.142;2023-07-29T10:13:18;96546.00;;;26.25;49.45
80124;BME280;69433;48.642;9.142;2023-07-29T10:15:44;96537.94;;;26.25;49.60
80124;BME280;69433;48.642;9.142;2023-07-29T10:18:10;96543.03;;;26.23;49.53
80124;BME280;69433;48.642;9.142;2023-07-29T10:20:36;96540.75;;;26.21;49.43
80124;BME280;69433;48.642;9.142;2023-07-29T10:23:07;96539.69;;;26.19;49.31
80124;BME280;69433;48.642;9.142;2023-07-29T10:25:38;96548.22;;;26.17;49.08
80124;BME280;69433;48.642;9.142;2023-07-29T10:28:06;96542.38;;;26.19;49.26
80124;BME280;69433;48.642;9.142;2023-07-29T10:30:33;96540.00;;;26.21;49.26
80124;BME280;69433;48.642;9.142;2023-07-29T10:33:01;96545.72;;;26.23;49.25
80124;BME280;69433;48.642;9.142;2023-07-29T10:35:27;96537.63;;;26.23;49.12
80124;BME280;69433;48.642;9.142;2023-07-29T10:37:53;96541.38;;;26.25;49.31
80124;BME280;69433;48.642;9.142;2023-07-29T10:40:19;96528.66;;;26.26;49.06
80124;BME280;69433;48.642;9.142;2023-07-29T10:43:08;96525.34;;;26.22;48.66
80124;BME280;69433;48.642;9.142;2023-07-29T10:45:40;96528.34;;;26.24;48.90
80124;BME280;69433;48.642;9.142;2023-07-29T10:48:13;96528.34;;;26.24;48.78
80124;BME280;69433;48.642;9.142;2023-07-29T10:51:36;96525.97;;;26.26;48.77
80124;BME280;69433;48.642;9.142;2023-07-29T10:54:12;96513.59;;;26.29;48.60
80124;BME280;69433;48.642;9.142;2023-07-29T10:56:46;96514.34;;;26.29;48.63
80124;BME280;69433;48.642;9.142;2023-07-29T11:01:54;96516.72;;;26.27;48.49
80124;BME280;69433;48.642;9.142;2023-07-29T11:09:58;96545.19;;;26.28;48.42
80124;BME280;69433;48.642;9.142;2023-07-29T11:12:46;96539.13;;;26.24;48.36
80124;BME280;69433;48.642;9.142;2023-07-29T11:15:26;96539.13;;;26.24;48.52
80124;BME280;69433;48.642;9.142;2023-07-29T11:17:59;96540.34;;;26.23;48.50
80124;BME280;69433;48.642;9.142;2023-07-29T11:20:31;96540.34;;;26.23;48.46
80124;BME280;69433;48.642;9.142;2023-07-29T11:22:58;96536.88;;;26.22;48.36
80124;BME280;69433;48.642;9.142;2023-07-29T11:25:25;96533.00;;;26.23;48.31
80124;BME280;69433;48.642;9.142;2023-07-29T11:27:53;96526.31;;;26.28;48.29
80124;BME280;69433;48.642;9.142;2023-07-29T11:30:18;96529.84;;;26.25;48.20
80124;BME280;69433;48.642;9.142;2023-07-29T11:32:45;96539.88;;;26.24;48.16
80124;BME280;69433;48.642;9.142;2023-07-29T11:35:15;96532.88;;;26.27;48.08
80124;BME280;69433;48.642;9.142;2023-07-29T11:37:41;96531.28;;;26.30;48.03
80124;BME280;69433;48.642;9.142;2023-07-29T11:40:17;96527.38;;;26.31;48.04
80124;BME280;69433;48.642;9.142;2023-07-29T11:42:42;96528.13;;;26.31;47.99
80124;BME280;69433;48.642;9.142;2023-07-29T11:45:08;96522.59;;;26.35;47.72
80124;BME280;69433;48.642;9.142;2023-07-29T11:47:34;96521.75;;;26.38;47.83
80124;BME280;69433;48.642;9.142;2023-07-29T11:50:03;96516.22;;;26.41;47.62
80124;BME280;69433;48.642;9.142;2023-07-29T11:52:29;96518.94;;;26.41;47.58
80124;BME280;69433;48.642;9.142;2023-07-29T11:54:56;96514.41;;;26.38;47.65
80124;BME280;69433;48.642;9.142;2023-07-29T11:57:23;96522.06;;;26.40;47.50
80124;BME280;69433;48.642;9.142;2023-07-29T11:59:49;96521.75;;;26.38;47.74
80124;BME280;69433;48.642;9.142;2023-07-29T12:02:16;96529.06;;;26.37;47.57
80124;BME280;69433;48.642;9.142;2023-07-29T12:04:44;96531.75;;;26.37;47.60
80124;BME280;69433;48.642;9.142;2023-07-29T12:07:12;96521.75;;;26.38;47.36
80124;BME280;69433;48.642;9.142;2023-07-29T12:09:39;96524.13;;;26.36;47.61
80124;BME280;69433;48.642;9.142;2023-07-29T12:12:05;96511.81;;;26.35;47.63
80124;BME280;69433;48.642;9.142;2023-07-29T12:14:31;96507.19;;;26.35;47.55
80124;BME280;69433;48.642;9.142;2023-07-29T12:17:00;96515.59;;;26.37;47.55
80124;BME280;69433;48.642;9.142;2023-07-29T12:19:34;96523.69;;;26.37;47.33
80124;BME280;69433;48.642;9.142;2023-07-29T12:22:05;96520.97;;;26.37;47.47
80124;BME280;69433;48.642;9.142;2023-07-29T12:24:32;96511.38;;;26.36;47.51
80124;BME280;69433;48.642;9.142;2023-07-29T12:26:58;96514.09;;;26.36;47.30
80124;BME280;69433;48.642;9.142;2023-07-29T12:29:24;96510.97;;;26.38;47.12
80124;BME280;69433;48.642;9.142;2023-07-29T12:31:58;96503.94;;;26.40;46.97
80124;BME280;69433;48.642;9.142;2023-07-29T12:34:28;96509.75;;;26.39;47.08
80124;BME280;69433;48.642;9.142;2023-07-29T12:36:58;96508.44;;;26.43;46.91
80124;BME280;69433;48.642;9.142;2023-07-29T12:39:33;96505.75;;;26.43;46.70
80124;BME280;69433;48.642;9.142;2023-07-29T12:41:59;96508.44;;;26.43;46.82
80124;BME280;69433;48.642;9.142;2023-07-29T12:44:33;96503.03;;;26.43;46.65
80124;BME280;69433;48.642;9.142;2023-07-29T12:47:06;96505.44;;;26.41;46.67
80124;BME280;69433;48.642;9.142;2023-07-29T12:49:31;96514.72;;;26.40;46.75
80124;BME280;69433;48.642;9.142;2023-07-29T12:51:58;96515.91;;;26.39;46.80
80124;BME280;69433;48.642;9.142;2023-07-29T12:54:23;96507.81;;;26.39;46.60
80124;BME280;69433;48.642;9.142;2023-07-29T12:56:49;96518.59;;;26.39;46.61
80124;BME280;69433;48.642;9.142;2023-07-29T12:59:15;96509.75;;;26.39;46.64
80124;BME280;69433;48.642;9.142;2023-07-29T13:01:46;96512.47;;;26.39;46.34
80124;BME280;69433;48.642;9.142;2023-07-29T13:04:12;96512.16;;;26.37;46.44
80124;BME280;69433;48.642;9.142;2023-07-29T13:06:37;96506.00;;;26.36;46.42
80124;BME280;69433;48.642;9.142;2023-07-29T13:09:03;96515.91;;;26.39;46.77
80124;BME280;69433;48.642;9.142;2023-07-29T13:11:29;96511.59;;;26.42;46.48